createdAt,value
2023-01-05T00:04:00.772Z,9.09
2023-01-05T00:09:03.451Z,9.02
2023-01-05T00:14:22.823Z,9.06
2023-01-05T00:19:43.226Z,9.03
2023-01-05T00:24:46.128Z,8.89
2023-01-05T00:29:48.723Z,8.91
2023-01-05T00:34:54.230Z,8.92
2023-01-05T00:39:56.849Z,8.96
2023-01-05T00:44:59.439Z,9.07
2023-01-05T00:50:02.004Z,9.21
2023-01-05T00:55:04.605Z,9.25
2023-01-05T01:00:07.531Z,9.16
2023-01-05T01:05:10.164Z,9.27
2023-01-05T01:10:13.050Z,9.34
2023-01-05T01:15:15.716Z,9.36
2023-01-05T01:20:18.923Z,9.39
2023-01-05T01:25:21.643Z,9.35
2023-01-05T01:30:24.784Z,9.28
2023-01-05T01:35:27.431Z,9.21
2023-01-05T01:40:30.112Z,9.25
2023-01-05T01:45:32.845Z,9.39
2023-01-05T01:50:35.578Z,9.13
2023-01-05T01:55:38.320Z,8.80
2023-01-05T02:00:40.944Z,8.68
2023-01-05T02:05:43.524Z,8.78
2023-01-05T02:10:46.118Z,8.72
2023-01-05T02:15:48.706Z,8.67
2023-01-05T02:20:52.377Z,8.74
2023-01-05T02:25:55.066Z,8.78
2023-01-05T02:30:59.744Z,8.84
2023-01-05T02:36:02.663Z,8.89
2023-01-05T02:41:05.642Z,9.01
2023-01-05T02:46:08.659Z,9.10
2023-01-05T02:51:11.622Z,9.01
2023-01-05T02:56:14.300Z,8.85
2023-01-05T03:01:17.390Z,8.63
2023-01-05T03:06:20.196Z,8.49
2023-01-05T03:11:40.787Z,8.44
2023-01-05T03:16:43.711Z,8.35
2023-01-05T03:22:03.958Z,8.30
2023-01-05T03:27:24.234Z,8.32
2023-01-05T03:32:44.749Z,8.42
2023-01-05T03:37:47.660Z,8.45
2023-01-05T03:42:50.298Z,8.53
2023-01-05T03:47:52.883Z,8.57
2023-01-05T03:52:55.591Z,8.65
2023-01-05T03:57:58.211Z,8.81
2023-01-05T04:03:01.068Z,8.81
2023-01-05T04:08:04.012Z,8.90
2023-01-05T04:13:06.663Z,8.92
2023-01-05T04:18:09.307Z,8.98
2023-01-05T04:23:12.175Z,9.09
2023-01-05T04:28:14.829Z,9.23
2023-01-05T04:33:17.413Z,9.31
2023-01-05T04:38:20.124Z,9.33
2023-01-05T04:43:23.418Z,9.32
2023-01-05T04:48:26.125Z,9.34
2023-01-05T04:53:28.900Z,9.32
2023-01-05T04:58:31.545Z,9.36
2023-01-05T05:03:34.267Z,9.36
2023-01-05T05:08:37.266Z,9.35
2023-01-05T05:13:39.982Z,9.42
2023-01-05T05:18:43.031Z,9.43
2023-01-05T05:23:46.091Z,9.48
2023-01-05T05:28:49.219Z,9.43
2023-01-05T05:33:52.352Z,9.42
2023-01-05T05:38:56.580Z,9.47
2023-01-05T05:44:01.002Z,9.45
2023-01-05T05:49:04.728Z,9.51
2023-01-05T05:54:07.450Z,9.40
2023-01-05T05:59:10.065Z,9.39
2023-01-05T06:04:12.724Z,9.28
2023-01-05T06:09:15.373Z,9.40
2023-01-05T06:14:18.015Z,9.40
2023-01-05T06:19:20.614Z,9.40
2023-01-05T06:24:23.237Z,9.36
2023-01-05T06:29:25.927Z,9.44
2023-01-05T06:34:28.554Z,9.47
2023-01-05T06:39:31.125Z,9.46
2023-01-05T06:44:33.821Z,9.43
2023-01-05T06:49:37.507Z,9.42
2023-01-05T06:54:40.131Z,9.35
2023-01-05T06:59:42.823Z,9.39
2023-01-05T07:04:45.473Z,9.44
2023-01-05T07:09:49.563Z,9.46
2023-01-05T07:14:57.281Z,9.47
2023-01-05T07:20:00.547Z,9.52
2023-01-05T07:25:03.183Z,9.47
2023-01-05T07:30:05.848Z,9.52
2023-01-05T07:35:08.486Z,9.57
2023-01-05T07:40:11.194Z,9.60
2023-01-05T07:45:13.851Z,9.67
2023-01-05T07:50:16.542Z,9.64
2023-01-05T07:55:19.243Z,9.73
2023-01-05T08:00:21.878Z,9.69
2023-01-05T08:05:24.487Z,9.74
2023-01-05T08:10:30.021Z,9.73
2023-01-05T08:15:32.709Z,9.83
2023-01-05T08:20:36.347Z,9.87
2023-01-05T08:25:39.211Z,9.86
2023-01-05T08:30:41.929Z,9.64
2023-01-05T08:35:44.535Z,9.67
2023-01-05T08:40:47.347Z,9.74
2023-01-05T08:45:50.875Z,9.52
2023-01-05T08:50:54.905Z,9.21
2023-01-05T08:55:57.864Z,9.14
2023-01-05T09:01:00.541Z,9.01
2023-01-05T09:06:03.508Z,8.92
2023-01-05T09:11:06.171Z,8.91
2023-01-05T09:16:08.883Z,8.84
2023-01-05T09:21:11.708Z,8.83
2023-01-05T09:26:15.289Z,8.94
2023-01-05T09:31:17.901Z,8.91
2023-01-05T09:36:20.924Z,9.12
2023-01-05T09:41:23.651Z,9.36
2023-01-05T09:46:26.315Z,9.55
2023-01-05T09:51:28.969Z,9.69
2023-01-05T09:57:08.070Z,9.80
2023-01-05T10:01:54.350Z,9.85
2023-01-05T10:06:58.153Z,9.92
2023-01-05T10:12:18.794Z,10.00
2023-01-05T10:22:44.235Z,10.06
2023-01-05T10:27:50.687Z,10.01
2023-01-05T10:33:21.985Z,10.18
2023-01-05T10:38:20.294Z,10.15
2023-01-05T10:43:23.445Z,10.14
2023-01-05T10:48:26.511Z,10.17
2023-01-05T10:53:29.893Z,10.17
2023-01-05T10:58:33.218Z,10.18
2023-01-05T11:04:15.018Z,10.23
2023-01-05T11:08:59.374Z,10.37
2023-01-05T11:14:02.069Z,10.52
2023-01-05T11:19:06.428Z,10.61
2023-01-05T11:24:10.627Z,10.72
2023-01-05T11:29:14.405Z,10.66
2023-01-05T11:34:17.888Z,10.58
2023-01-05T11:39:21.020Z,10.54
2023-01-05T11:44:24.214Z,10.45
2023-01-05T11:49:27.473Z,10.52
2023-01-05T11:54:30.516Z,10.58
2023-01-05T11:59:33.633Z,10.62
2023-01-05T12:04:36.717Z,10.62
2023-01-05T12:09:40.369Z,10.61
2023-01-05T12:14:43.941Z,10.54
2023-01-05T12:19:46.557Z,10.49
2023-01-05T12:24:49.464Z,10.51
2023-01-05T12:35:15.010Z,10.52
2023-01-05T12:40:17.965Z,10.54
2023-01-05T12:45:20.598Z,10.59
2023-01-05T12:50:23.261Z,10.50
2023-01-05T12:55:25.845Z,10.53
2023-01-05T13:00:28.765Z,10.59
2023-01-05T13:05:31.497Z,10.86
2023-01-05T13:10:34.132Z,10.74
2023-01-05T13:15:40.476Z,10.79
2023-01-05T13:20:43.816Z,10.70
2023-01-05T13:25:46.447Z,10.66
2023-01-05T13:30:49.090Z,10.45
2023-01-05T13:35:51.835Z,10.29
2023-01-05T13:40:54.515Z,10.10
2023-01-05T13:45:57.214Z,9.95
2023-01-05T13:50:59.907Z,9.73
2023-01-05T13:56:02.601Z,9.51
2023-01-05T14:01:05.838Z,9.30
2023-01-05T14:06:09.836Z,9.28
2023-01-05T14:11:12.432Z,9.34
2023-01-05T14:16:15.243Z,9.35
2023-01-05T14:21:17.913Z,9.39
2023-01-05T14:26:20.543Z,9.09
2023-01-05T14:31:27.998Z,8.57
2023-01-05T14:36:30.673Z,8.07
2023-01-05T14:41:33.355Z,7.95
2023-01-05T14:46:36.178Z,7.74
2023-01-05T14:51:39.867Z,7.69
2023-01-05T14:56:43.024Z,7.68
2023-01-05T15:01:46.165Z,7.76
2023-01-05T15:06:49.574Z,7.77
2023-01-05T15:11:52.771Z,7.83
2023-01-05T15:16:55.990Z,7.85
2023-01-05T15:22:07.954Z,7.87
2023-01-05T15:27:21.651Z,7.88
2023-01-05T15:32:24.261Z,7.89
2023-01-05T15:37:26.859Z,7.91
2023-01-05T15:42:29.524Z,7.92
2023-01-05T15:47:32.181Z,7.90
2023-01-05T15:52:34.828Z,7.95
2023-01-05T15:57:37.484Z,7.96
2023-01-05T16:02:40.147Z,7.99
2023-01-05T16:07:43.178Z,8.00
2023-01-05T16:12:45.796Z,8.04
2023-01-05T16:17:48.411Z,8.08
2023-01-05T16:22:55.152Z,7.93
2023-01-05T16:28:03.380Z,7.91
2023-01-05T16:33:11.450Z,7.84
2023-01-05T16:38:14.159Z,7.79
2023-01-05T16:43:16.791Z,7.78
2023-01-05T16:48:19.374Z,7.81
2023-01-05T16:53:24.439Z,7.77
2023-01-05T16:58:27.688Z,7.74
2023-01-05T17:03:31.278Z,7.74
2023-01-05T17:08:35.958Z,7.73
2023-01-05T17:13:39.127Z,7.78
2023-01-05T17:18:42.311Z,7.76
2023-01-05T17:23:47.048Z,7.77
2023-01-05T17:28:50.256Z,7.78
2023-01-05T17:33:53.370Z,7.82
2023-01-05T17:38:56.436Z,7.77
2023-01-05T17:43:59.512Z,7.83
2023-01-05T17:49:02.632Z,7.82
2023-01-05T17:54:05.705Z,7.89
2023-01-05T17:59:09.055Z,7.84
2023-01-05T18:04:12.207Z,7.93
2023-01-05T18:09:15.342Z,7.90
2023-01-05T18:14:18.417Z,7.89
2023-01-05T18:19:21.547Z,7.91
2023-01-05T18:24:24.650Z,7.84
2023-01-05T18:29:27.717Z,7.89
2023-01-05T18:34:32.058Z,7.85
2023-01-05T18:39:35.255Z,7.92
2023-01-05T18:44:38.591Z,7.99
2023-01-05T18:49:44.727Z,8.03
2023-01-05T18:54:48.109Z,8.04
2023-01-05T18:59:51.888Z,8.05
2023-01-05T19:04:55.821Z,7.94
2023-01-05T19:09:58.971Z,7.99
2023-01-05T19:15:02.121Z,8.03
2023-01-05T19:20:09.281Z,8.01
2023-01-05T19:25:12.392Z,7.95
2023-01-05T19:30:16.918Z,7.89
2023-01-05T19:35:20.770Z,7.94
2023-01-05T19:40:24.392Z,7.90
2023-01-05T19:45:27.576Z,7.89
2023-01-05T19:50:30.648Z,7.94
2023-01-05T19:55:33.757Z,7.92
2023-01-05T20:00:36.840Z,7.89
2023-01-05T20:05:40.068Z,7.81
2023-01-05T20:10:43.189Z,7.83
2023-01-05T20:15:46.385Z,7.95
2023-01-05T20:20:49.515Z,8.03
2023-01-05T20:25:52.752Z,7.98
2023-01-05T20:30:56.036Z,8.02
2023-01-05T20:35:59.540Z,7.98
2023-01-05T20:41:02.597Z,8.04
2023-01-05T20:46:08.471Z,8.13
2023-01-05T20:51:11.562Z,8.12
2023-01-05T20:56:15.981Z,8.20
2023-01-05T21:01:19.088Z,8.29
2023-01-05T21:06:22.258Z,8.29
2023-01-05T21:11:25.968Z,8.31
2023-01-05T21:16:29.189Z,8.41
2023-01-05T21:21:33.396Z,8.43
2023-01-05T21:26:36.480Z,8.54
2023-01-05T21:31:39.805Z,8.52
2023-01-05T21:36:45.021Z,8.54
2023-01-05T21:42:05.676Z,8.56
2023-01-05T21:47:08.772Z,8.58
2023-01-05T21:52:37.914Z,8.54
2023-01-05T21:57:40.985Z,8.51
2023-01-05T22:02:44.055Z,8.44
2023-01-05T22:07:47.168Z,8.34
2023-01-05T22:12:50.283Z,8.30
2023-01-05T22:17:53.398Z,8.31
2023-01-05T22:22:56.475Z,8.29
2023-01-05T22:27:59.521Z,8.24
2023-01-05T22:33:02.629Z,8.29
2023-01-05T22:38:05.735Z,8.30
2023-01-05T22:43:08.847Z,8.33
2023-01-05T22:48:12.139Z,8.33
2023-01-05T22:53:15.191Z,8.29
2023-01-05T22:58:18.333Z,8.26
2023-01-05T23:03:21.413Z,8.20
2023-01-05T23:08:24.512Z,8.06
2023-01-05T23:13:27.552Z,8.06
2023-01-05T23:18:30.663Z,8.09
2023-01-05T23:23:33.763Z,8.08
2023-01-05T23:28:36.932Z,8.03
2023-01-05T23:33:40.054Z,8.03
2023-01-05T23:38:43.150Z,8.00
2023-01-05T23:43:46.263Z,7.98
2023-01-05T23:48:49.292Z,7.96
2023-01-05T23:53:52.387Z,8.08
2023-01-05T23:58:55.431Z,8.06
